sensor_id;sensor_type;location;lat;lon;timestamp;P1;durP1;ratioP1;P2;durP2;ratioP2
16642;SDS011;8435;52.184;5.406;2023-01-09T00:01:16;1.87;;;0.80;;
16642;SDS011;8435;52.184;5.406;2023-01-09T00:03:44;1.27;;;0.90;;
16642;SDS011;8435;52.184;5.406;2023-01-09T00:06:11;0.90;;;0.60;;
16642;SDS011;8435;52.184;5.406;2023-01-09T00:08:38;1.27;;;0.80;;
16642;SDS011;8435;52.184;5.406;2023-01-09T00:11:05;3.00;;;1.10;;
16642;SDS011;8435;52.184;5.406;2023-01-09T00:13:32;1.63;;;0.90;;
16642;SDS011;8435;52.184;5.406;2023-01-09T00:16:12;0.70;;;0.70;;
16642;SDS011;8435;52.184;5.406;2023-01-09T00:18:40;2.00;;;1.40;;
16642;SDS011;8435;52.184;5.406;2023-01-09T00:21:07;3.40;;;1.43;;
16642;SDS011;8435;52.184;5.406;2023-01-09T00:23:35;2.17;;;1.07;;
16642;SDS011;8435;52.184;5.406;2023-01-09T00:26:03;4.97;;;1.07;;
16642;SDS011;8435;52.184;5.406;2023-01-09T00:28:32;1.27;;;0.90;;
16642;SDS011;8435;52.184;5.406;2023-01-09T00:31:00;0.80;;;0.80;;
16642;SDS011;8435;52.184;5.406;2023-01-09T00:33:29;4.60;;;1.50;;
16642;SDS011;8435;52.184;5.406;2023-01-09T00:35:59;1.37;;;0.80;;
16642;SDS011;8435;52.184;5.406;2023-01-09T00:38:26;1.97;;;1.00;;
16642;SDS011;8435;52.184;5.406;2023-01-09T00:40:53;2.17;;;1.30;;
16642;SDS011;8435;52.184;5.406;2023-01-09T00:43:22;4.03;;;1.40;;
16642;SDS011;8435;52.184;5.406;2023-01-09T00:45:52;1.57;;;1.27;;
16642;SDS011;8435;52.184;5.406;2023-01-09T00:48:19;1.40;;;1.00;;
16642;SDS011;8435;52.184;5.406;2023-01-09T00:50:50;2.10;;;1.80;;
16642;SDS011;8435;52.184;5.406;2023-01-09T00:53:26;2.03;;;1.23;;
16642;SDS011;8435;52.184;5.406;2023-01-09T00:55:56;1.13;;;1.03;;
16642;SDS011;8435;52.184;5.406;2023-01-09T00:58:25;2.63;;;1.27;;
16642;SDS011;8435;52.184;5.406;2023-01-09T01:00:52;1.77;;;1.57;;
16642;SDS011;8435;52.184;5.406;2023-01-09T01:03:19;1.50;;;1.23;;
16642;SDS011;8435;52.184;5.406;2023-01-09T01:05:45;1.73;;;0.93;;
16642;SDS011;8435;52.184;5.406;2023-01-09T01:08:31;1.93;;;1.60;;
16642;SDS011;8435;52.184;5.406;2023-01-09T01:10:58;6.77;;;1.53;;
16642;SDS011;8435;52.184;5.406;2023-01-09T01:13:30;2.13;;;1.70;;
16642;SDS011;8435;52.184;5.406;2023-01-09T01:15:57;2.00;;;1.73;;
16642;SDS011;8435;52.184;5.406;2023-01-09T01:18:23;2.93;;;2.00;;
16642;SDS011;8435;52.184;5.406;2023-01-09T01:20:50;6.27;;;2.20;;
16642;SDS011;8435;52.184;5.406;2023-01-09T01:23:17;6.87;;;1.57;;
16642;SDS011;8435;52.184;5.406;2023-01-09T01:25:45;3.40;;;1.27;;
16642;SDS011;8435;52.184;5.406;2023-01-09T01:28:13;1.90;;;1.57;;
16642;SDS011;8435;52.184;5.406;2023-01-09T01:30:40;2.27;;;1.67;;
16642;SDS011;8435;52.184;5.406;2023-01-09T01:33:08;1.93;;;1.60;;
16642;SDS011;8435;52.184;5.406;2023-01-09T01:35:36;1.60;;;1.50;;
16642;SDS011;8435;52.184;5.406;2023-01-09T01:38:03;2.00;;;1.40;;
16642;SDS011;8435;52.184;5.406;2023-01-09T01:40:30;1.43;;;1.33;;
16642;SDS011;8435;52.184;5.406;2023-01-09T01:42:59;2.07;;;1.53;;
16642;SDS011;8435;52.184;5.406;2023-01-09T01:45:26;2.67;;;1.90;;
16642;SDS011;8435;52.184;5.406;2023-01-09T01:47:55;2.00;;;1.80;;
16642;SDS011;8435;52.184;5.406;2023-01-09T01:50:26;1.70;;;1.40;;
16642;SDS011;8435;52.184;5.406;2023-01-09T01:53:03;3.13;;;1.70;;
16642;SDS011;8435;52.184;5.406;2023-01-09T01:55:38;1.80;;;1.20;;
16642;SDS011;8435;52.184;5.406;2023-01-09T01:58:08;2.37;;;1.70;;
16642;SDS011;8435;52.184;5.406;2023-01-09T02:00:39;2.90;;;1.40;;
16642;SDS011;8435;52.184;5.406;2023-01-09T02:03:10;3.40;;;1.57;;
16642;SDS011;8435;52.184;5.406;2023-01-09T02:05:40;1.87;;;1.70;;
16642;SDS011;8435;52.184;5.406;2023-01-09T02:08:07;4.03;;;2.00;;
16642;SDS011;8435;52.184;5.406;2023-01-09T02:10:34;1.93;;;1.70;;
16642;SDS011;8435;52.184;5.406;2023-01-09T02:13:04;3.10;;;1.90;;
16642;SDS011;8435;52.184;5.406;2023-01-09T02:15:36;2.33;;;1.97;;
16642;SDS011;8435;52.184;5.406;2023-01-09T02:18:23;2.80;;;2.10;;
16642;SDS011;8435;52.184;5.406;2023-01-09T02:20:59;3.03;;;2.50;;
16642;SDS011;8435;52.184;5.406;2023-01-09T02:26:58;2.67;;;2.33;;
16642;SDS011;8435;52.184;5.406;2023-01-09T02:32:45;2.90;;;2.60;;
16642;SDS011;8435;52.184;5.406;2023-01-09T02:35:26;2.67;;;2.30;;
16642;SDS011;8435;52.184;5.406;2023-01-09T02:38:08;2.93;;;2.73;;
16642;SDS011;8435;52.184;5.406;2023-01-09T02:40:43;3.77;;;3.10;;
16642;SDS011;8435;52.184;5.406;2023-01-09T02:43:15;3.73;;;3.37;;
16642;SDS011;8435;52.184;5.406;2023-01-09T02:45:44;3.30;;;3.00;;
16642;SDS011;8435;52.184;5.406;2023-01-09T02:48:12;3.27;;;3.07;;
16642;SDS011;8435;52.184;5.406;2023-01-09T02:50:40;3.60;;;3.10;;
16642;SDS011;8435;52.184;5.406;2023-01-09T02:53:20;4.27;;;3.17;;
16642;SDS011;8435;52.184;5.406;2023-01-09T02:56:08;4.40;;;3.73;;
16642;SDS011;8435;52.184;5.406;2023-01-09T02:58:51;4.87;;;3.07;;
16642;SDS011;8435;52.184;5.406;2023-01-09T03:01:34;3.97;;;3.53;;
16642;SDS011;8435;52.184;5.406;2023-01-09T03:04:13;4.80;;;3.27;;
16642;SDS011;8435;52.184;5.406;2023-01-09T03:06:46;4.60;;;3.77;;
16642;SDS011;8435;52.184;5.406;2023-01-09T03:09:19;3.17;;;2.87;;
16642;SDS011;8435;52.184;5.406;2023-01-09T03:11:49;3.73;;;3.43;;
16642;SDS011;8435;52.184;5.406;2023-01-09T03:14:21;4.50;;;3.00;;
16642;SDS011;8435;52.184;5.406;2023-01-09T03:16:51;3.87;;;3.47;;
16642;SDS011;8435;52.184;5.406;2023-01-09T03:19:33;4.23;;;2.90;;
16642;SDS011;8435;52.184;5.406;2023-01-09T03:22:01;3.77;;;3.47;;
16642;SDS011;8435;52.184;5.406;2023-01-09T03:24:28;2.80;;;2.60;;
16642;SDS011;8435;52.184;5.406;2023-01-09T03:26:55;3.50;;;3.07;;
16642;SDS011;8435;52.184;5.406;2023-01-09T03:29:22;5.20;;;3.23;;
16642;SDS011;8435;52.184;5.406;2023-01-09T03:31:51;4.17;;;2.93;;
16642;SDS011;8435;52.184;5.406;2023-01-09T03:34:18;6.00;;;3.17;;
16642;SDS011;8435;52.184;5.406;2023-01-09T03:36:46;3.27;;;2.97;;
16642;SDS011;8435;52.184;5.406;2023-01-09T03:39:13;4.10;;;3.27;;
16642;SDS011;8435;52.184;5.406;2023-01-09T03:41:42;3.57;;;2.90;;
16642;SDS011;8435;52.184;5.406;2023-01-09T03:44:08;3.00;;;2.80;;
16642;SDS011;8435;52.184;5.406;2023-01-09T03:46:35;3.53;;;3.23;;
16642;SDS011;8435;52.184;5.406;2023-01-09T03:49:02;4.60;;;3.13;;
16642;SDS011;8435;52.184;5.406;2023-01-09T03:51:28;5.10;;;2.80;;
16642;SDS011;8435;52.184;5.406;2023-01-09T03:53:57;3.60;;;3.07;;
16642;SDS011;8435;52.184;5.406;2023-01-09T03:56:23;3.47;;;3.17;;
16642;SDS011;8435;52.184;5.406;2023-01-09T03:58:50;3.20;;;2.90;;
16642;SDS011;8435;52.184;5.406;2023-01-09T04:01:17;2.77;;;2.50;;
16642;SDS011;8435;52.184;5.406;2023-01-09T04:03:44;4.90;;;3.67;;
16642;SDS011;8435;52.184;5.406;2023-01-09T04:06:11;3.53;;;2.97;;
16642;SDS011;8435;52.184;5.406;2023-01-09T04:08:40;4.33;;;2.90;;
16642;SDS011;8435;52.184;5.406;2023-01-09T04:11:08;3.17;;;2.67;;
16642;SDS011;8435;52.184;5.406;2023-01-09T04:13:35;3.37;;;2.63;;
16642;SDS011;8435;52.184;5.406;2023-01-09T04:16:02;5.97;;;3.20;;
16642;SDS011;8435;52.184;5.406;2023-01-09T04:18:29;3.80;;;2.53;;
16642;SDS011;8435;52.184;5.406;2023-01-09T04:20:56;3.67;;;2.50;;
16642;SDS011;8435;52.184;5.406;2023-01-09T04:23:25;3.73;;;2.70;;
16642;SDS011;8435;52.184;5.406;2023-01-09T04:25:52;4.50;;;2.90;;
16642;SDS011;8435;52.184;5.406;2023-01-09T04:28:20;4.90;;;2.83;;
16642;SDS011;8435;52.184;5.406;2023-01-09T04:30:47;2.70;;;2.43;;
16642;SDS011;8435;52.184;5.406;2023-01-09T04:33:14;2.67;;;2.23;;
16642;SDS011;8435;52.184;5.406;2023-01-09T04:35:44;3.97;;;2.80;;
16642;SDS011;8435;52.184;5.406;2023-01-09T04:38:11;3.60;;;2.50;;
16642;SDS011;8435;52.184;5.406;2023-01-09T04:40:38;2.83;;;2.30;;
16642;SDS011;8435;52.184;5.406;2023-01-09T04:43:07;2.37;;;2.13;;
16642;SDS011;8435;52.184;5.406;2023-01-09T04:45:35;4.13;;;2.70;;
16642;SDS011;8435;52.184;5.406;2023-01-09T04:48:02;4.37;;;2.60;;
16642;SDS011;8435;52.184;5.406;2023-01-09T04:50:30;6.47;;;2.60;;
16642;SDS011;8435;52.184;5.406;2023-01-09T04:52:57;5.17;;;2.27;;
16642;SDS011;8435;52.184;5.406;2023-01-09T04:55:23;4.27;;;2.10;;
16642;SDS011;8435;52.184;5.406;2023-01-09T04:57:50;3.13;;;2.00;;
16642;SDS011;8435;52.184;5.406;2023-01-09T05:00:17;2.67;;;2.10;;
16642;SDS011;8435;52.184;5.406;2023-01-09T05:02:45;2.73;;;2.00;;
16642;SDS011;8435;52.184;5.406;2023-01-09T05:05:12;3.03;;;1.70;;
16642;SDS011;8435;52.184;5.406;2023-01-09T05:07:39;4.10;;;2.00;;
16642;SDS011;8435;52.184;5.406;2023-01-09T05:10:06;2.97;;;1.83;;
16642;SDS011;8435;52.184;5.406;2023-01-09T05:12:35;2.80;;;2.17;;
16642;SDS011;8435;52.184;5.406;2023-01-09T05:15:02;4.73;;;2.23;;
16642;SDS011;8435;52.184;5.406;2023-01-09T05:17:29;2.93;;;2.10;;
16642;SDS011;8435;52.184;5.406;2023-01-09T05:19:57;2.60;;;2.03;;
16642;SDS011;8435;52.184;5.406;2023-01-09T05:22:24;4.60;;;2.13;;
16642;SDS011;8435;52.184;5.406;2023-01-09T05:24:51;2.67;;;1.80;;
16642;SDS011;8435;52.184;5.406;2023-01-09T05:27:18;3.80;;;1.60;;
16642;SDS011;8435;52.184;5.406;2023-01-09T05:29:45;3.60;;;1.90;;
16642;SDS011;8435;52.184;5.406;2023-01-09T05:32:12;3.97;;;1.70;;
16642;SDS011;8435;52.184;5.406;2023-01-09T05:34:38;2.53;;;1.80;;
16642;SDS011;8435;52.184;5.406;2023-01-09T05:37:07;2.87;;;1.60;;
16642;SDS011;8435;52.184;5.406;2023-01-09T05:39:33;2.10;;;1.67;;
16642;SDS011;8435;52.184;5.406;2023-01-09T05:42:00;1.63;;;1.53;;
16642;SDS011;8435;52.184;5.406;2023-01-09T05:44:27;4.00;;;1.70;;
16642;SDS011;8435;52.184;5.406;2023-01-09T05:46:57;4.13;;;1.60;;
16642;SDS011;8435;52.184;5.406;2023-01-09T05:49:23;3.17;;;1.90;;
16642;SDS011;8435;52.184;5.406;2023-01-09T05:51:50;3.50;;;1.50;;
16642;SDS011;8435;52.184;5.406;2023-01-09T05:54:18;1.93;;;1.70;;
16642;SDS011;8435;52.184;5.406;2023-01-09T05:56:45;3.03;;;1.30;;
16642;SDS011;8435;52.184;5.406;2023-01-09T05:59:15;3.10;;;1.70;;
16642;SDS011;8435;52.184;5.406;2023-01-09T06:01:41;2.73;;;1.30;;
16642;SDS011;8435;52.184;5.406;2023-01-09T06:04:08;3.20;;;1.47;;
16642;SDS011;8435;52.184;5.406;2023-01-09T06:06:35;3.17;;;1.20;;
16642;SDS011;8435;52.184;5.406;2023-01-09T06:09:02;2.10;;;1.40;;
16642;SDS011;8435;52.184;5.406;2023-01-09T06:11:30;3.60;;;1.60;;
16642;SDS011;8435;52.184;5.406;2023-01-09T06:13:58;4.10;;;1.50;;
16642;SDS011;8435;52.184;5.406;2023-01-09T06:16:25;4.47;;;2.10;;
16642;SDS011;8435;52.184;5.406;2023-01-09T06:18:51;3.03;;;1.53;;
16642;SDS011;8435;52.184;5.406;2023-01-09T06:21:18;1.87;;;1.30;;
16642;SDS011;8435;52.184;5.406;2023-01-09T06:23:45;1.50;;;1.40;;
16642;SDS011;8435;52.184;5.406;2023-01-09T06:26:12;8.67;;;1.93;;
16642;SDS011;8435;52.184;5.406;2023-01-09T06:28:43;4.77;;;1.50;;
16642;SDS011;8435;52.184;5.406;2023-01-09T06:31:09;2.93;;;2.13;;
16642;SDS011;8435;52.184;5.406;2023-01-09T06:33:37;3.07;;;1.53;;
16642;SDS011;8435;52.184;5.406;2023-01-09T06:36:04;4.17;;;1.70;;
16642;SDS011;8435;52.184;5.406;2023-01-09T06:38:31;2.63;;;1.40;;
16642;SDS011;8435;52.184;5.406;2023-01-09T06:41:01;2.53;;;1.80;;
16642;SDS011;8435;52.184;5.406;2023-01-09T06:43:27;4.50;;;1.43;;
16642;SDS011;8435;52.184;5.406;2023-01-09T06:45:58;2.87;;;1.60;;
16642;SDS011;8435;52.184;5.406;2023-01-09T06:48:25;4.67;;;2.13;;
16642;SDS011;8435;52.184;5.406;2023-01-09T06:50:54;4.63;;;1.70;;
16642;SDS011;8435;52.184;5.406;2023-01-09T06:53:20;3.00;;;2.13;;
16642;SDS011;8435;52.184;5.406;2023-01-09T06:55:48;4.80;;;1.80;;
16642;SDS011;8435;52.184;5.406;2023-01-09T06:58:15;3.37;;;1.87;;
16642;SDS011;8435;52.184;5.406;2023-01-09T07:00:44;3.00;;;1.50;;
16642;SDS011;8435;52.184;5.406;2023-01-09T07:03:14;4.57;;;3.30;;
16642;SDS011;8435;52.184;5.406;2023-01-09T07:05:44;4.57;;;2.43;;
16642;SDS011;8435;52.184;5.406;2023-01-09T07:08:11;3.13;;;2.10;;
16642;SDS011;8435;52.184;5.406;2023-01-09T07:10:39;1.93;;;1.63;;
16642;SDS011;8435;52.184;5.406;2023-01-09T07:13:07;3.83;;;2.00;;
16642;SDS011;8435;52.184;5.406;2023-01-09T07:15:34;3.53;;;2.13;;
16642;SDS011;8435;52.184;5.406;2023-01-09T07:18:01;5.17;;;3.03;;
16642;SDS011;8435;52.184;5.406;2023-01-09T07:20:30;4.63;;;2.50;;
16642;SDS011;8435;52.184;5.406;2023-01-09T07:22:56;5.23;;;1.93;;
16642;SDS011;8435;52.184;5.406;2023-01-09T07:25:23;3.33;;;1.90;;
16642;SDS011;8435;52.184;5.406;2023-01-09T07:27:50;3.77;;;1.80;;
16642;SDS011;8435;52.184;5.406;2023-01-09T07:30:17;3.93;;;1.70;;
16642;SDS011;8435;52.184;5.406;2023-01-09T07:32:44;3.50;;;1.67;;
16642;SDS011;8435;52.184;5.406;2023-01-09T07:35:10;2.73;;;1.60;;
16642;SDS011;8435;52.184;5.406;2023-01-09T07:37:38;4.30;;;1.90;;
16642;SDS011;8435;52.184;5.406;2023-01-09T07:40:06;5.33;;;1.93;;
16642;SDS011;8435;52.184;5.406;2023-01-09T07:42:35;4.37;;;2.10;;
16642;SDS011;8435;52.184;5.406;2023-01-09T07:45:02;2.90;;;1.80;;
16642;SDS011;8435;52.184;5.406;2023-01-09T07:47:29;3.60;;;1.87;;
16642;SDS011;8435;52.184;5.406;2023-01-09T07:49:56;4.37;;;2.20;;
16642;SDS011;8435;52.184;5.406;2023-01-09T07:52:23;8.67;;;5.83;;
16642;SDS011;8435;52.184;5.406;2023-01-09T07:54:53;4.93;;;3.70;;
16642;SDS011;8435;52.184;5.406;2023-01-09T07:57:19;5.23;;;3.70;;
16642;SDS011;8435;52.184;5.406;2023-01-09T07:59:46;6.47;;;4.40;;
16642;SDS011;8435;52.184;5.406;2023-01-09T08:02:13;8.43;;;6.10;;
16642;SDS011;8435;52.184;5.406;2023-01-09T08:04:41;5.30;;;3.97;;
16642;SDS011;8435;52.184;5.406;2023-01-09T08:07:08;3.70;;;3.37;;
16642;SDS011;8435;52.184;5.406;2023-01-09T08:09:35;3.40;;;3.10;;
16642;SDS011;8435;52.184;5.406;2023-01-09T08:12:03;2.73;;;2.40;;
16642;SDS011;8435;52.184;5.406;2023-01-09T08:14:30;5.17;;;3.00;;
16642;SDS011;8435;52.184;5.406;2023-01-09T08:16:57;3.93;;;3.03;;
16642;SDS011;8435;52.184;5.406;2023-01-09T08:19:24;4.20;;;2.80;;
16642;SDS011;8435;52.184;5.406;2023-01-09T08:21:50;3.93;;;2.83;;
16642;SDS011;8435;52.184;5.406;2023-01-09T08:24:17;2.33;;;2.13;;
16642;SDS011;8435;52.184;5.406;2023-01-09T08:26:44;3.10;;;2.60;;
16642;SDS011;8435;52.184;5.406;2023-01-09T08:29:12;3.83;;;2.73;;
16642;SDS011;8435;52.184;5.406;2023-01-09T08:31:39;5.50;;;4.63;;
16642;SDS011;8435;52.184;5.406;2023-01-09T08:34:06;3.57;;;2.53;;
16642;SDS011;8435;52.184;5.406;2023-01-09T08:36:32;3.13;;;2.10;;
16642;SDS011;8435;52.184;5.406;2023-01-09T08:38:59;3.00;;;1.97;;
16642;SDS011;8435;52.184;5.406;2023-01-09T08:41:26;1.73;;;1.50;;
16642;SDS011;8435;52.184;5.406;2023-01-09T08:44:10;1.83;;;1.50;;
16642;SDS011;8435;52.184;5.406;2023-01-09T08:46:55;1.40;;;1.27;;
16642;SDS011;8435;52.184;5.406;2023-01-09T08:49:31;2.43;;;1.47;;
16642;SDS011;8435;52.184;5.406;2023-01-09T08:51:59;2.87;;;1.67;;
16642;SDS011;8435;52.184;5.406;2023-01-09T08:54:25;1.87;;;1.30;;
16642;SDS011;8435;52.184;5.406;2023-01-09T08:56:52;1.30;;;1.20;;
16642;SDS011;8435;52.184;5.406;2023-01-09T08:59:19;2.10;;;1.20;;
16642;SDS011;8435;52.184;5.406;2023-01-09T09:01:46;4.97;;;1.40;;
16642;SDS011;8435;52.184;5.406;2023-01-09T09:04:14;1.50;;;1.40;;
16642;SDS011;8435;52.184;5.406;2023-01-09T09:06:41;2.27;;;1.50;;
16642;SDS011;8435;52.184;5.406;2023-01-09T09:09:08;1.87;;;1.33;;
16642;SDS011;8435;52.184;5.406;2023-01-09T09:11:38;2.50;;;1.20;;
16642;SDS011;8435;52.184;5.406;2023-01-09T09:14:05;2.43;;;1.27;;
16642;SDS011;8435;52.184;5.406;2023-01-09T09:16:46;2.40;;;1.40;;
16642;SDS011;8435;52.184;5.406;2023-01-09T09:19:14;1.47;;;1.13;;
16642;SDS011;8435;52.184;5.406;2023-01-09T09:21:40;2.80;;;0.90;;
16642;SDS011;8435;52.184;5.406;2023-01-09T09:24:07;1.43;;;1.00;;
16642;SDS011;8435;52.184;5.406;2023-01-09T09:26:34;1.80;;;1.00;;
16642;SDS011;8435;52.184;5.406;2023-01-09T09:29:01;3.13;;;0.90;;
16642;SDS011;8435;52.184;5.406;2023-01-09T09:31:27;2.20;;;1.17;;
16642;SDS011;8435;52.184;5.406;2023-01-09T09:33:55;2.60;;;0.90;;
16642;SDS011;8435;52.184;5.406;2023-01-09T09:36:24;2.43;;;1.10;;
16642;SDS011;8435;52.184;5.406;2023-01-09T09:38:50;4.23;;;1.20;;
16642;SDS011;8435;52.184;5.406;2023-01-09T09:41:21;3.40;;;1.00;;
16642;SDS011;8435;52.184;5.406;2023-01-09T09:44:23;1.97;;;0.90;;
16642;SDS011;8435;52.184;5.406;2023-01-09T09:47:12;3.07;;;1.60;;
16642;SDS011;8435;52.184;5.406;2023-01-09T09:49:52;2.40;;;1.30;;
16642;SDS011;8435;52.184;5.406;2023-01-09T09:52:34;3.90;;;1.17;;
16642;SDS011;8435;52.184;5.406;2023-01-09T09:55:10;2.53;;;1.03;;
16642;SDS011;8435;52.184;5.406;2023-01-09T09:57:42;2.37;;;0.90;;
16642;SDS011;8435;52.184;5.406;2023-01-09T10:00:13;3.23;;;0.70;;
16642;SDS011;8435;52.184;5.406;2023-01-09T10:02:45;3.73;;;1.20;;
16642;SDS011;8435;52.184;5.406;2023-01-09T10:05:20;1.50;;;0.80;;
16642;SDS011;8435;52.184;5.406;2023-01-09T10:07:53;4.10;;;1.00;;
16642;SDS011;8435;52.184;5.406;2023-01-09T10:10:24;1.77;;;0.63;;
16642;SDS011;8435;52.184;5.406;2023-01-09T10:12:57;3.03;;;0.93;;
16642;SDS011;8435;52.184;5.406;2023-01-09T10:15:47;3.50;;;0.93;;
16642;SDS011;8435;52.184;5.406;2023-01-09T10:18:24;1.67;;;0.80;;
16642;SDS011;8435;52.184;5.406;2023-01-09T10:20:57;3.33;;;1.00;;
16642;SDS011;8435;52.184;5.406;2023-01-09T10:26:37;6.43;;;1.60;;
16642;SDS011;8435;52.184;5.406;2023-01-09T10:29:10;3.40;;;1.20;;
16642;SDS011;8435;52.184;5.406;2023-01-09T10:31:48;4.60;;;1.30;;
16642;SDS011;8435;52.184;5.406;2023-01-09T10:34:29;3.70;;;1.50;;
16642;SDS011;8435;52.184;5.406;2023-01-09T10:37:07;4.70;;;1.43;;
16642;SDS011;8435;52.184;5.406;2023-01-09T10:39:40;5.63;;;1.77;;
16642;SDS011;8435;52.184;5.406;2023-01-09T10:42:11;5.77;;;1.70;;
16642;SDS011;8435;52.184;5.406;2023-01-09T10:44:47;5.80;;;1.67;;
16642;SDS011;8435;52.184;5.406;2023-01-09T10:47:20;7.50;;;1.87;;
16642;SDS011;8435;52.184;5.406;2023-01-09T10:49:50;4.93;;;1.60;;
16642;SDS011;8435;52.184;5.406;2023-01-09T10:52:19;8.33;;;1.97;;
16642;SDS011;8435;52.184;5.406;2023-01-09T10:54:55;5.67;;;1.73;;
16642;SDS011;8435;52.184;5.406;2023-01-09T10:57:29;7.83;;;2.30;;
16642;SDS011;8435;52.184;5.406;2023-01-09T11:00:03;5.37;;;1.50;;
16642;SDS011;8435;52.184;5.406;2023-01-09T11:02:32;4.97;;;1.30;;
16642;SDS011;8435;52.184;5.406;2023-01-09T11:05:00;3.20;;;1.17;;
16642;SDS011;8435;52.184;5.406;2023-01-09T11:07:27;3.80;;;1.00;;
16642;SDS011;8435;52.184;5.406;2023-01-09T11:09:58;5.30;;;1.27;;
16642;SDS011;8435;52.184;5.406;2023-01-09T11:12:27;1.83;;;0.83;;
16642;SDS011;8435;52.184;5.406;2023-01-09T11:15:06;3.30;;;1.23;;
16642;SDS011;8435;52.184;5.406;2023-01-09T11:17:52;3.60;;;1.23;;
16642;SDS011;8435;52.184;5.406;2023-01-09T11:20:23;3.60;;;1.03;;
16642;SDS011;8435;52.184;5.406;2023-01-09T11:22:52;2.67;;;1.03;;
16642;SDS011;8435;52.184;5.406;2023-01-09T11:25:21;3.63;;;1.03;;
16642;SDS011;8435;52.184;5.406;2023-01-09T11:28:03;7.07;;;1.57;;
16642;SDS011;8435;52.184;5.406;2023-01-09T11:30:32;4.20;;;1.43;;
16642;SDS011;8435;52.184;5.406;2023-01-09T11:33:11;4.90;;;1.17;;
16642;SDS011;8435;52.184;5.406;2023-01-09T11:35:47;4.53;;;1.37;;
16642;SDS011;8435;52.184;5.406;2023-01-09T11:38:28;5.30;;;1.70;;
16642;SDS011;8435;52.184;5.406;2023-01-09T11:40:58;5.53;;;1.70;;
16642;SDS011;8435;52.184;5.406;2023-01-09T11:43:28;5.17;;;1.70;;
16642;SDS011;8435;52.184;5.406;2023-01-09T11:45:59;3.63;;;1.30;;
16642;SDS011;8435;52.184;5.406;2023-01-09T11:48:31;5.10;;;1.30;;
16642;SDS011;8435;52.184;5.406;2023-01-09T11:51:04;2.73;;;1.43;;
16642;SDS011;8435;52.184;5.406;2023-01-09T11:53:43;5.43;;;1.60;;
16642;SDS011;8435;52.184;5.406;2023-01-09T11:56:16;4.03;;;1.40;;
16642;SDS011;8435;52.184;5.406;2023-01-09T11:58:43;6.93;;;1.97;;
16642;SDS011;8435;52.184;5.406;2023-01-09T12:01:17;5.07;;;1.60;;
16642;SDS011;8435;52.184;5.406;2023-01-09T12:04:04;4.67;;;1.80;;
16642;SDS011;8435;52.184;5.406;2023-01-09T12:06:41;3.80;;;1.80;;
16642;SDS011;8435;52.184;5.406;2023-01-09T12:09:18;4.63;;;2.13;;
16642;SDS011;8435;52.184;5.406;2023-01-09T12:11:55;4.53;;;1.50;;
16642;SDS011;8435;52.184;5.406;2023-01-09T12:14:30;5.43;;;2.03;;
16642;SDS011;8435;52.184;5.406;2023-01-09T12:17:21;8.70;;;2.43;;
16642;SDS011;8435;52.184;5.406;2023-01-09T12:20:32;8.73;;;2.00;;
16642;SDS011;8435;52.184;5.406;2023-01-09T12:23:15;6.77;;;2.23;;
16642;SDS011;8435;52.184;5.406;2023-01-09T12:25:58;7.37;;;2.33;;
16642;SDS011;8435;52.184;5.406;2023-01-09T12:28:46;7.50;;;1.80;;
16642;SDS011;8435;52.184;5.406;2023-01-09T12:31:34;5.10;;;1.80;;
16642;SDS011;8435;52.184;5.406;2023-01-09T12:34:13;5.30;;;2.20;;
16642;SDS011;8435;52.184;5.406;2023-01-09T12:36:51;7.43;;;5.23;;
16642;SDS011;8435;52.184;5.406;2023-01-09T12:39:27;6.53;;;2.93;;
16642;SDS011;8435;52.184;5.406;2023-01-09T12:42:12;3.27;;;1.70;;
16642;SDS011;8435;52.184;5.406;2023-01-09T12:44:54;4.23;;;1.57;;
16642;SDS011;8435;52.184;5.406;2023-01-09T12:50:16;2.90;;;1.63;;
16642;SDS011;8435;52.184;5.406;2023-01-09T12:53:16;4.07;;;1.40;;
16642;SDS011;8435;52.184;5.406;2023-01-09T12:55:50;3.97;;;1.60;;
16642;SDS011;8435;52.184;5.406;2023-01-09T12:58:25;7.10;;;1.77;;
16642;SDS011;8435;52.184;5.406;2023-01-09T13:00:58;3.83;;;1.47;;
16642;SDS011;8435;52.184;5.406;2023-01-09T13:03:28;3.97;;;1.60;;
16642;SDS011;8435;52.184;5.406;2023-01-09T13:06:01;2.87;;;1.50;;
16642;SDS011;8435;52.184;5.406;2023-01-09T13:08:30;4.57;;;1.30;;
16642;SDS011;8435;52.184;5.406;2023-01-09T13:11:04;4.10;;;1.40;;
16642;SDS011;8435;52.184;5.406;2023-01-09T13:13:38;2.83;;;1.43;;
16642;SDS011;8435;52.184;5.406;2023-01-09T13:16:11;4.70;;;1.47;;
16642;SDS011;8435;52.184;5.406;2023-01-09T13:18:41;6.13;;;2.23;;
16642;SDS011;8435;52.184;5.406;2023-01-09T13:21:11;3.93;;;2.03;;
16642;SDS011;8435;52.184;5.406;2023-01-09T13:23:41;5.63;;;2.10;;
16642;SDS011;8435;52.184;5.406;2023-01-09T13:26:14;3.67;;;1.53;;
16642;SDS011;8435;52.184;5.406;2023-01-09T13:28:45;4.63;;;2.00;;
16642;SDS011;8435;52.184;5.406;2023-01-09T13:31:32;2.27;;;1.20;;
16642;SDS011;8435;52.184;5.406;2023-01-09T13:34:16;3.20;;;1.50;;
16642;SDS011;8435;52.184;5.406;2023-01-09T13:36:47;5.63;;;1.50;;
16642;SDS011;8435;52.184;5.406;2023-01-09T13:39:19;5.23;;;1.93;;
16642;SDS011;8435;52.184;5.406;2023-01-09T13:41:50;5.10;;;4.00;;
16642;SDS011;8435;52.184;5.406;2023-01-09T13:44:36;8.90;;;3.40;;
16642;SDS011;8435;52.184;5.406;2023-01-09T13:47:08;5.80;;;2.30;;
16642;SDS011;8435;52.184;5.406;2023-01-09T13:50:00;6.97;;;3.00;;
16642;SDS011;8435;52.184;5.406;2023-01-09T13:52:46;9.23;;;2.27;;
16642;SDS011;8435;52.184;5.406;2023-01-09T14:00:51;6.67;;;1.90;;
16642;SDS011;8435;52.184;5.406;2023-01-09T14:03:24;7.30;;;2.00;;
16642;SDS011;8435;52.184;5.406;2023-01-09T14:06:15;6.13;;;1.60;;
16642;SDS011;8435;52.184;5.406;2023-01-09T14:08:44;5.40;;;2.13;;
16642;SDS011;8435;52.184;5.406;2023-01-09T14:11:19;4.93;;;1.60;;
16642;SDS011;8435;52.184;5.406;2023-01-09T14:13:52;6.60;;;2.10;;
16642;SDS011;8435;52.184;5.406;2023-01-09T14:16:32;4.87;;;2.27;;
16642;SDS011;8435;52.184;5.406;2023-01-09T14:19:04;7.37;;;2.17;;
16642;SDS011;8435;52.184;5.406;2023-01-09T14:21:47;6.80;;;2.23;;
16642;SDS011;8435;52.184;5.406;2023-01-09T14:24:22;6.03;;;2.43;;
16642;SDS011;8435;52.184;5.406;2023-01-09T14:26:53;4.87;;;1.80;;
16642;SDS011;8435;52.184;5.406;2023-01-09T14:29:43;5.90;;;2.10;;
16642;SDS011;8435;52.184;5.406;2023-01-09T14:35:20;4.33;;;2.17;;
16642;SDS011;8435;52.184;5.406;2023-01-09T14:38:18;8.83;;;2.43;;
16642;SDS011;8435;52.184;5.406;2023-01-09T14:40:53;7.07;;;1.80;;
16642;SDS011;8435;52.184;5.406;2023-01-09T14:43:27;11.53;;;5.90;;
16642;SDS011;8435;52.184;5.406;2023-01-09T14:46:03;5.63;;;2.40;;
16642;SDS011;8435;52.184;5.406;2023-01-09T14:48:37;6.73;;;2.20;;
16642;SDS011;8435;52.184;5.406;2023-01-09T14:51:13;8.47;;;2.37;;
16642;SDS011;8435;52.184;5.406;2023-01-09T14:53:43;6.67;;;2.43;;
16642;SDS011;8435;52.184;5.406;2023-01-09T14:56:22;5.17;;;1.83;;
16642;SDS011;8435;52.184;5.406;2023-01-09T14:59:01;6.23;;;1.60;;
16642;SDS011;8435;52.184;5.406;2023-01-09T15:01:29;4.60;;;1.63;;
16642;SDS011;8435;52.184;5.406;2023-01-09T15:03:57;5.07;;;1.80;;
16642;SDS011;8435;52.184;5.406;2023-01-09T15:06:28;3.87;;;1.53;;
16642;SDS011;8435;52.184;5.406;2023-01-09T15:09:00;5.40;;;1.90;;
16642;SDS011;8435;52.184;5.406;2023-01-09T15:11:32;5.63;;;1.73;;
16642;SDS011;8435;52.184;5.406;2023-01-09T15:14:00;6.27;;;1.43;;
16642;SDS011;8435;52.184;5.406;2023-01-09T15:16:27;7.07;;;2.10;;
16642;SDS011;8435;52.184;5.406;2023-01-09T15:18:56;6.40;;;2.20;;
16642;SDS011;8435;52.184;5.406;2023-01-09T15:21:26;8.13;;;2.40;;
16642;SDS011;8435;52.184;5.406;2023-01-09T15:24:01;7.53;;;2.73;;
16642;SDS011;8435;52.184;5.406;2023-01-09T15:26:37;8.23;;;2.43;;
16642;SDS011;8435;52.184;5.406;2023-01-09T15:29:07;6.53;;;2.23;;
16642;SDS011;8435;52.184;5.406;2023-01-09T15:31:40;8.23;;;2.23;;
16642;SDS011;8435;52.184;5.406;2023-01-09T15:34:10;8.63;;;2.07;;
16642;SDS011;8435;52.184;5.406;2023-01-09T15:36:44;7.07;;;1.97;;
16642;SDS011;8435;52.184;5.406;2023-01-09T15:39:13;6.40;;;1.93;;
16642;SDS011;8435;52.184;5.406;2023-01-09T15:41:45;10.90;;;3.60;;
16642;SDS011;8435;52.184;5.406;2023-01-09T15:44:29;11.33;;;2.93;;
16642;SDS011;8435;52.184;5.406;2023-01-09T15:47:00;6.30;;;2.13;;